createdAt,value
2022-10-17T00:00:49.039Z,6.07
2022-10-17T00:03:17.483Z,5.27
2022-10-17T00:05:46.916Z,4.50
2022-10-17T00:08:17.332Z,5.93
2022-10-17T00:10:45.810Z,5.70
2022-10-17T00:13:15.237Z,5.87
2022-10-17T00:15:45.422Z,5.43
2022-10-17T00:18:13.246Z,8.87
2022-10-17T00:20:41.084Z,4.03
2022-10-17T00:23:08.835Z,5.07
2022-10-17T00:25:36.980Z,6.73
2022-10-17T00:28:04.984Z,5.17
2022-10-17T00:30:34.123Z,5.37
2022-10-17T00:33:01.890Z,6.60
2022-10-17T00:35:29.710Z,4.70
2022-10-17T00:37:57.523Z,8.13
2022-10-17T00:40:25.522Z,6.77
2022-10-17T00:42:53.283Z,6.03
2022-10-17T00:45:25.176Z,7.87
2022-10-17T00:47:57.434Z,6.00
2022-10-17T00:50:25.738Z,5.27
2022-10-17T00:52:54.348Z,6.33
2022-10-17T00:55:24.488Z,5.27
2022-10-17T00:57:53.788Z,5.50
2022-10-17T01:00:22.560Z,5.77
2022-10-17T01:02:50.390Z,7.60
2022-10-17T01:05:20.510Z,5.90
2022-10-17T01:07:51.800Z,6.60
2022-10-17T01:10:20.775Z,5.77
2022-10-17T01:13:06.030Z,6.20
2022-10-17T01:15:43.040Z,6.87
2022-10-17T01:18:23.668Z,5.90
2022-10-17T01:21:18.232Z,6.10
2022-10-17T01:24:22.310Z,6.43
2022-10-17T01:27:17.335Z,6.63
2022-10-17T01:30:17.390Z,6.23
2022-10-17T01:32:51.269Z,6.13
2022-10-17T01:35:24.622Z,7.30
2022-10-17T01:38:00.414Z,9.10
2022-10-17T01:40:32.671Z,7.10
2022-10-17T01:43:06.044Z,7.73
2022-10-17T01:45:42.023Z,7.53
2022-10-17T01:48:17.264Z,7.50
2022-10-17T01:50:49.952Z,8.37
2022-10-17T01:53:23.230Z,11.17
2022-10-17T01:55:52.315Z,7.43
2022-10-17T01:58:24.678Z,8.30
2022-10-17T02:00:53.933Z,7.23
2022-10-17T02:03:25.335Z,8.83
2022-10-17T02:05:53.346Z,7.83
2022-10-17T02:08:28.417Z,7.87
2022-10-17T02:11:01.466Z,7.67
2022-10-17T02:13:41.903Z,7.60
2022-10-17T02:16:19.685Z,7.70
2022-10-17T02:19:35.048Z,9.70
2022-10-17T02:22:13.210Z,7.60
2022-10-17T02:24:47.966Z,8.87
2022-10-17T02:27:21.420Z,7.50
2022-10-17T02:29:52.003Z,8.30
2022-10-17T02:32:25.983Z,9.17
2022-10-17T02:34:57.725Z,10.70
2022-10-17T02:37:30.967Z,7.47
2022-10-17T02:40:01.459Z,8.83
2022-10-17T02:42:31.177Z,8.03
2022-10-17T02:45:01.628Z,9.27
2022-10-17T02:47:33.242Z,8.67
2022-10-17T02:50:02.437Z,8.43
2022-10-17T02:52:36.664Z,8.07
2022-10-17T02:55:11.760Z,8.13
2022-10-17T02:57:42.896Z,8.73
2022-10-17T03:00:14.113Z,7.87
2022-10-17T03:02:44.426Z,8.63
2022-10-17T03:05:15.095Z,8.80
2022-10-17T03:07:42.873Z,8.50
2022-10-17T03:10:11.053Z,8.80
2022-10-17T03:12:38.925Z,9.77
2022-10-17T03:15:07.857Z,8.83
2022-10-17T03:17:35.749Z,11.97
2022-10-17T03:20:04.055Z,8.30
2022-10-17T03:22:33.624Z,7.80
2022-10-17T03:25:01.342Z,9.03
2022-10-17T03:27:29.320Z,9.43
2022-10-17T03:29:57.203Z,8.13
2022-10-17T03:32:24.996Z,9.03
2022-10-17T03:34:52.761Z,11.63
2022-10-17T03:37:20.500Z,11.67
2022-10-17T03:39:49.626Z,9.60
2022-10-17T03:42:17.350Z,7.83
2022-10-17T03:44:45.112Z,8.33
2022-10-17T03:47:14.213Z,8.43
2022-10-17T03:49:42.536Z,11.60
2022-10-17T03:52:12.584Z,8.63
2022-10-17T03:54:40.349Z,8.83
2022-10-17T03:57:09.474Z,7.93
2022-10-17T03:59:37.236Z,8.43
2022-10-17T04:02:05.016Z,7.70
2022-10-17T04:04:32.774Z,9.43
2022-10-17T04:07:00.512Z,8.27
2022-10-17T04:09:28.292Z,10.30
2022-10-17T04:11:56.025Z,9.43
2022-10-17T04:14:25.140Z,8.80
2022-10-17T04:16:53.518Z,11.30
2022-10-17T04:19:21.344Z,10.33
2022-10-17T04:21:49.412Z,11.30
2022-10-17T04:24:17.520Z,8.40
2022-10-17T04:26:45.422Z,7.60
2022-10-17T04:29:13.204Z,7.70
2022-10-17T04:31:42.313Z,10.77
2022-10-17T04:34:10.108Z,8.43
2022-10-17T04:36:37.852Z,8.97
2022-10-17T04:39:05.915Z,9.13
2022-10-17T04:41:33.719Z,11.40
2022-10-17T04:44:01.507Z,8.57
2022-10-17T04:46:29.247Z,6.53
2022-10-17T04:48:58.303Z,7.53
2022-10-17T04:51:26.678Z,8.80
2022-10-17T04:53:54.767Z,9.00
2022-10-17T04:56:24.656Z,7.87
2022-10-17T04:58:52.521Z,6.27
2022-10-17T05:01:22.391Z,6.33
2022-10-17T05:03:50.466Z,9.80
2022-10-17T05:06:21.427Z,8.87
2022-10-17T05:08:49.794Z,11.27
2022-10-17T05:11:19.193Z,8.67
2022-10-17T05:13:51.323Z,8.57
2022-10-17T05:16:19.124Z,8.33
2022-10-17T05:18:52.709Z,9.10
2022-10-17T05:21:24.219Z,6.73
2022-10-17T05:23:52.842Z,9.13
2022-10-17T05:26:21.040Z,11.07
2022-10-17T05:28:49.096Z,6.60
2022-10-17T05:31:16.933Z,8.93
2022-10-17T05:33:44.745Z,6.90
2022-10-17T05:36:12.612Z,9.47
2022-10-17T05:38:41.730Z,9.33
2022-10-17T05:41:10.730Z,7.90
2022-10-17T05:43:38.493Z,9.93
2022-10-17T05:46:07.293Z,9.00
2022-10-17T05:48:35.725Z,7.47
2022-10-17T05:51:05.469Z,8.00
2022-10-17T05:53:34.387Z,9.20
2022-10-17T05:56:06.963Z,8.10
2022-10-17T05:58:53.190Z,8.33
2022-10-17T06:01:22.279Z,9.30
2022-10-17T06:03:50.028Z,9.67
2022-10-17T06:06:18.627Z,8.40
2022-10-17T06:08:46.878Z,8.87
2022-10-17T06:11:16.030Z,7.60
2022-10-17T06:13:43.847Z,9.57
2022-10-17T06:16:11.659Z,6.93
2022-10-17T06:18:39.544Z,9.37
2022-10-17T06:21:10.530Z,7.37
2022-10-17T06:23:38.350Z,8.20
2022-10-17T06:26:07.757Z,7.57
2022-10-17T06:28:37.457Z,9.90
2022-10-17T06:31:06.783Z,10.17
2022-10-17T06:33:34.724Z,10.93
2022-10-17T06:36:02.981Z,7.37
2022-10-17T06:38:32.729Z,9.13
2022-10-17T06:41:08.742Z,7.73
2022-10-17T06:43:38.493Z,8.70
2022-10-17T06:46:06.797Z,9.97
2022-10-17T06:48:35.058Z,9.77
2022-10-17T06:51:04.583Z,8.70
2022-10-17T06:53:33.733Z,9.97
2022-10-17T06:56:03.150Z,9.90
2022-10-17T06:58:32.078Z,8.27
2022-10-17T07:01:02.403Z,9.53
2022-10-17T07:03:30.991Z,8.00
2022-10-17T07:05:59.401Z,7.77
2022-10-17T07:08:27.915Z,9.27
2022-10-17T07:10:56.336Z,10.70
2022-10-17T07:13:25.482Z,7.77
2022-10-17T07:18:27.489Z,11.03
2022-10-17T07:20:55.674Z,7.70
2022-10-17T07:23:24.109Z,9.30
2022-10-17T07:25:51.946Z,9.63
2022-10-17T07:28:20.382Z,9.67
2022-10-17T07:30:52.018Z,8.37
2022-10-17T07:33:22.650Z,10.10
2022-10-17T07:35:53.190Z,12.00
2022-10-17T07:38:21.078Z,8.50
2022-10-17T07:40:55.573Z,15.83
2022-10-17T07:43:23.809Z,10.87
2022-10-17T07:45:51.853Z,12.57
2022-10-17T07:48:20.839Z,12.73
2022-10-17T07:50:49.729Z,10.93
2022-10-17T07:53:19.576Z,10.73
2022-10-17T07:55:49.562Z,9.87
2022-10-17T07:58:18.195Z,12.60
2022-10-17T08:00:48.298Z,13.23
2022-10-17T08:03:16.399Z,10.57
2022-10-17T08:05:44.202Z,11.03
2022-10-17T08:08:12.038Z,12.60
2022-10-17T08:10:41.562Z,11.23
2022-10-17T08:13:09.379Z,11.93
2022-10-17T08:15:39.845Z,12.70
2022-10-17T08:18:07.708Z,12.13
2022-10-17T08:20:35.604Z,10.47
2022-10-17T08:23:03.439Z,15.83
2022-10-17T08:25:31.263Z,15.17
2022-10-17T08:28:00.697Z,11.77
2022-10-17T08:30:30.561Z,11.80
2022-10-17T08:32:58.516Z,10.40
2022-10-17T08:35:26.372Z,9.83
2022-10-17T08:37:54.205Z,12.97
2022-10-17T08:40:25.182Z,10.50
2022-10-17T08:43:17.467Z,11.70
2022-10-17T08:45:49.719Z,11.00
2022-10-17T08:48:20.307Z,10.53
2022-10-17T08:50:52.768Z,12.77
2022-10-17T08:53:24.048Z,12.73
2022-10-17T08:55:53.918Z,11.33
2022-10-17T08:58:24.422Z,14.87
2022-10-17T09:01:02.241Z,11.37
2022-10-17T09:03:43.106Z,11.73
2022-10-17T09:06:19.011Z,11.00
2022-10-17T09:08:57.173Z,13.60
2022-10-17T09:11:41.821Z,11.40
2022-10-17T09:14:31.780Z,13.75
2022-10-17T09:17:12.301Z,14.57
2022-10-17T09:19:44.229Z,12.70
2022-10-17T09:22:15.073Z,12.70
2022-10-17T09:24:47.132Z,11.90
2022-10-17T09:27:23.388Z,13.47
2022-10-17T09:30:43.712Z,12.77
2022-10-17T09:33:23.362Z,14.17
2022-10-17T09:36:05.435Z,11.27
2022-10-17T09:38:39.226Z,14.60
2022-10-17T09:41:39.424Z,13.00
2022-10-17T09:44:16.913Z,10.83
2022-10-17T09:47:02.983Z,10.30
2022-10-17T09:49:34.836Z,13.53
2022-10-17T09:52:04.492Z,11.63
2022-10-17T09:54:42.420Z,11.00
2022-10-17T09:57:11.908Z,11.17
2022-10-17T09:59:41.669Z,12.90
2022-10-17T10:02:19.871Z,10.80
2022-10-17T10:05:07.486Z,10.40
2022-10-17T10:07:38.224Z,12.07
2022-10-17T10:10:08.950Z,13.10
2022-10-17T10:12:38.860Z,11.93
2022-10-17T10:15:33.376Z,11.63
2022-10-17T10:18:02.841Z,9.50
2022-10-17T10:20:35.032Z,8.50
2022-10-17T10:23:17.181Z,9.33
2022-10-17T10:25:54.826Z,9.57
2022-10-17T10:28:27.135Z,8.30
2022-10-17T10:33:48.149Z,8.17
2022-10-17T10:36:21.701Z,7.33
2022-10-17T10:38:55.076Z,6.40
2022-10-17T10:41:23.257Z,9.10
2022-10-17T10:43:53.888Z,9.40
2022-10-17T10:46:23.806Z,6.53
2022-10-17T10:48:55.665Z,4.47
2022-10-17T10:51:28.730Z,6.03
2022-10-17T10:54:03.269Z,6.90
2022-10-17T10:56:35.551Z,6.40
2022-10-17T10:59:10.547Z,5.00
2022-10-17T11:01:47.965Z,3.83
2022-10-17T11:04:28.064Z,3.63
2022-10-17T11:07:02.513Z,4.20
2022-10-17T11:09:43.673Z,3.30
2022-10-17T11:12:17.958Z,4.57
2022-10-17T11:14:50.774Z,4.70
2022-10-17T11:17:28.849Z,5.73
2022-10-17T11:20:11.745Z,3.73
2022-10-17T11:22:43.514Z,5.97
2022-10-17T11:25:23.150Z,3.97
2022-10-17T11:27:51.263Z,4.43
2022-10-17T11:30:19.408Z,3.70
2022-10-17T11:32:50.744Z,4.90
2022-10-17T11:35:24.627Z,5.00
2022-10-17T11:37:56.376Z,5.20
2022-10-17T11:40:31.861Z,4.60
2022-10-17T11:43:02.789Z,6.27
2022-10-17T11:45:36.405Z,5.83
2022-10-17T11:48:07.595Z,5.43
2022-10-17T11:53:33.165Z,9.17
2022-10-17T11:56:02.556Z,4.70
2022-10-17T11:58:37.452Z,4.83
2022-10-17T12:01:20.097Z,4.60
2022-10-17T12:04:01.877Z,5.80
2022-10-17T12:06:44.046Z,5.67
2022-10-17T12:09:18.942Z,5.73
2022-10-17T12:11:53.874Z,4.03
2022-10-17T12:14:38.291Z,4.00
2022-10-17T12:17:07.935Z,3.53
2022-10-17T12:19:40.300Z,4.13
2022-10-17T12:22:21.080Z,4.50
2022-10-17T12:25:02.589Z,4.97
2022-10-17T12:27:39.432Z,5.87
2022-10-17T12:30:18.040Z,3.57
2022-10-17T12:33:06.201Z,2.40
2022-10-17T12:35:37.164Z,4.33
2022-10-17T12:38:22.953Z,4.37
2022-10-17T12:40:53.079Z,7.80
2022-10-17T12:43:56.355Z,2.70
2022-10-17T12:46:56.894Z,3.13
2022-10-17T12:49:51.064Z,4.23
2022-10-17T12:52:23.822Z,4.20
2022-10-17T12:55:11.560Z,3.60
2022-10-17T12:57:56.560Z,4.33
2022-10-17T13:00:30.239Z,2.73
2022-10-17T13:03:06.448Z,4.47
2022-10-17T13:05:36.998Z,3.07
2022-10-17T13:08:07.952Z,3.17
2022-10-17T13:10:41.864Z,3.70
2022-10-17T13:13:17.373Z,3.70
2022-10-17T13:15:48.132Z,3.53
2022-10-17T13:18:22.037Z,3.97
2022-10-17T13:20:58.554Z,5.37
2022-10-17T13:23:27.601Z,3.83
2022-10-17T13:26:12.054Z,4.47
2022-10-17T13:28:40.026Z,3.30
2022-10-17T13:31:08.403Z,3.63
2022-10-17T13:33:39.908Z,3.43
2022-10-17T13:36:15.600Z,2.90
2022-10-17T13:38:44.046Z,5.73
2022-10-17T13:41:34.795Z,4.87
2022-10-17T13:44:07.795Z,4.53
2022-10-17T13:46:38.900Z,4.37
2022-10-17T13:49:21.272Z,4.67
2022-10-17T13:51:52.757Z,6.77
2022-10-17T13:54:34.062Z,5.00
2022-10-17T13:57:04.898Z,4.70
2022-10-17T13:59:39.680Z,5.20
2022-10-17T14:02:12.589Z,5.90
2022-10-17T14:05:11.719Z,8.13
2022-10-17T14:07:58.389Z,6.20
2022-10-17T14:10:26.045Z,5.77
2022-10-17T14:12:56.305Z,4.70
2022-10-17T14:15:27.242Z,6.20
2022-10-17T14:17:58.076Z,5.23
2022-10-17T14:20:57.610Z,6.03
2022-10-17T14:23:31.365Z,4.43
2022-10-17T14:26:07.990Z,4.43
2022-10-17T14:28:37.318Z,3.60
2022-10-17T14:31:25.947Z,4.30
2022-10-17T14:33:55.082Z,4.63
2022-10-17T14:36:33.103Z,4.33
2022-10-17T14:39:02.053Z,2.30
2022-10-17T14:41:47.557Z,3.13
2022-10-17T14:44:25.095Z,3.83
2022-10-17T14:46:57.721Z,2.90
2022-10-17T14:49:34.595Z,3.73
2022-10-17T14:52:27.351Z,8.30
2022-10-17T14:54:56.056Z,6.67
2022-10-17T14:57:26.888Z,4.93
2022-10-17T14:59:57.390Z,4.07
2022-10-17T15:02:26.294Z,4.97
2022-10-17T15:04:54.416Z,5.17
2022-10-17T15:07:23.535Z,5.43
2022-10-17T15:09:53.339Z,3.50
2022-10-17T15:12:24.628Z,4.30
2022-10-17T15:14:52.833Z,5.03
2022-10-17T15:17:25.147Z,6.03
2022-10-17T15:19:53.101Z,6.87
2022-10-17T15:22:20.965Z,8.37
2022-10-17T15:24:48.955Z,4.80
2022-10-17T15:27:21.832Z,7.00
2022-10-17T15:29:50.216Z,5.67
2022-10-17T15:32:18.238Z,4.27
2022-10-17T15:34:47.341Z,3.60
2022-10-17T15:37:20.705Z,4.95
2022-10-17T15:39:53.074Z,8.43
2022-10-17T15:42:21.929Z,5.93
2022-10-17T15:44:50.346Z,6.47
2022-10-17T15:47:24.638Z,5.47
2022-10-17T15:49:54.065Z,5.00
2022-10-17T15:52:22.068Z,3.33
2022-10-17T15:54:50.280Z,5.17
2022-10-17T15:57:20.283Z,5.87
2022-10-17T15:59:49.098Z,6.05
2022-10-17T16:02:18.817Z,4.13
2022-10-17T16:04:47.330Z,7.03
2022-10-17T16:07:16.948Z,6.83
2022-10-17T16:09:44.923Z,5.03
2022-10-17T16:12:16.550Z,5.17
2022-10-17T16:14:44.434Z,8.83
2022-10-17T16:17:15.365Z,4.10
2022-10-17T16:19:43.879Z,5.87
2022-10-17T16:22:25.945Z,5.53
2022-10-17T16:24:58.267Z,5.07
2022-10-17T16:27:26.138Z,5.97
2022-10-17T16:29:53.959Z,6.90
2022-10-17T16:32:21.672Z,9.47
2022-10-17T16:34:49.427Z,5.30
2022-10-17T16:37:17.210Z,4.47
2022-10-17T16:39:49.154Z,4.83
2022-10-17T16:42:16.984Z,4.47
2022-10-17T16:44:44.715Z,7.00
2022-10-17T16:47:12.491Z,4.53
2022-10-17T16:49:42.949Z,3.93
2022-10-17T16:52:13.195Z,3.70
2022-10-17T16:54:41.076Z,6.07
2022-10-17T16:57:10.212Z,3.40
2022-10-17T16:59:38.019Z,7.70
2022-10-17T17:02:06.103Z,5.77
2022-10-17T17:04:33.880Z,4.47
2022-10-17T17:07:01.633Z,3.70
2022-10-17T17:09:29.492Z,6.70
2022-10-17T17:11:57.238Z,6.07
2022-10-17T17:14:26.360Z,3.20
2022-10-17T17:16:54.151Z,5.97
2022-10-17T17:19:21.914Z,5.13
2022-10-17T17:21:51.000Z,9.43
2022-10-17T17:24:20.905Z,4.70
2022-10-17T17:26:52.943Z,6.03
2022-10-17T17:29:21.283Z,4.23
2022-10-17T17:31:50.563Z,6.10
2022-10-17T17:34:18.747Z,3.13
2022-10-17T17:36:46.800Z,8.80
2022-10-17T17:39:16.058Z,4.53
2022-10-17T17:41:45.521Z,5.70
2022-10-17T17:44:16.764Z,7.00
2022-10-17T17:46:45.224Z,6.43
2022-10-17T17:49:14.839Z,4.67
2022-10-17T17:51:46.108Z,4.77
2022-10-17T17:54:14.228Z,8.40
2022-10-17T17:56:42.163Z,7.40
2022-10-17T17:59:12.579Z,5.67
2022-10-17T18:01:40.443Z,7.03
2022-10-17T18:04:09.576Z,5.63
2022-10-17T18:06:40.599Z,7.43
2022-10-17T18:09:09.533Z,5.53
2022-10-17T18:11:38.131Z,8.63
2022-10-17T18:14:07.846Z,8.23
2022-10-17T18:16:37.279Z,9.07
2022-10-17T18:19:07.237Z,7.80
2022-10-17T18:21:35.462Z,6.70
2022-10-17T18:24:05.651Z,6.07
2022-10-17T18:26:33.788Z,6.23
2022-10-17T18:29:01.551Z,9.13
2022-10-17T18:31:32.201Z,6.30
2022-10-17T18:34:00.986Z,8.63
2022-10-17T18:36:30.034Z,8.13
2022-10-17T18:38:57.817Z,11.03
2022-10-17T18:41:28.429Z,7.00
2022-10-17T18:43:57.128Z,7.43
2022-10-17T18:46:26.372Z,4.47
2022-10-17T18:48:54.309Z,6.73
2022-10-17T18:51:23.933Z,7.23
2022-10-17T18:53:53.474Z,7.17
2022-10-17T18:56:22.376Z,6.60
2022-10-17T18:58:51.955Z,5.70
2022-10-17T19:01:21.555Z,5.83
2022-10-17T19:03:51.482Z,7.07
2022-10-17T19:06:20.933Z,6.03
2022-10-17T19:08:49.340Z,7.87
2022-10-17T19:11:19.220Z,6.00
2022-10-17T19:13:48.268Z,9.57
2022-10-17T19:16:20.251Z,5.70
2022-10-17T19:18:50.653Z,8.30
2022-10-17T19:21:21.824Z,8.57
2022-10-17T19:23:55.007Z,4.50
2022-10-17T19:26:23.639Z,7.43
2022-10-17T19:28:53.708Z,8.40
2022-10-17T19:31:27.156Z,5.07
2022-10-17T19:33:56.443Z,7.50
2022-10-17T19:36:28.854Z,7.93
2022-10-17T19:39:00.790Z,8.40
2022-10-17T19:41:29.152Z,5.27
2022-10-17T19:43:57.105Z,8.23
2022-10-17T19:46:28.591Z,7.53
2022-10-17T19:48:56.999Z,9.67
2022-10-17T19:51:26.180Z,10.47
2022-10-17T19:53:55.280Z,4.67
2022-10-17T19:56:24.216Z,8.03
2022-10-17T19:58:53.920Z,6.47
2022-10-17T20:01:24.487Z,5.30
2022-10-17T20:03:54.276Z,8.93
2022-10-17T20:06:22.569Z,9.30
2022-10-17T20:08:50.556Z,7.93
2022-10-17T20:11:20.710Z,6.97
2022-10-17T20:13:49.356Z,7.20
2022-10-17T20:16:20.453Z,6.97
2022-10-17T20:18:48.373Z,8.50
2022-10-17T20:21:19.652Z,6.93
2022-10-17T20:23:47.961Z,7.33
2022-10-17T20:29:08.621Z,7.13
2022-10-17T20:31:36.643Z,6.50
2022-10-17T20:34:04.460Z,8.87
2022-10-17T20:36:36.864Z,6.77
2022-10-17T20:39:05.702Z,7.40
2022-10-17T20:41:33.690Z,6.60
2022-10-17T20:44:01.467Z,5.57
2022-10-17T20:46:36.817Z,7.30
2022-10-17T20:49:05.943Z,6.93
2022-10-17T20:51:35.535Z,9.23
2022-10-17T20:54:03.676Z,7.60
2022-10-17T20:56:33.713Z,7.40
2022-10-17T20:59:07.273Z,5.83
2022-10-17T21:01:36.323Z,8.77
2022-10-17T21:06:54.331Z,5.53
2022-10-17T21:09:22.239Z,7.37
2022-10-17T21:11:51.352Z,9.53
2022-10-17T21:14:19.548Z,7.57
2022-10-17T21:16:47.605Z,10.03
2022-10-17T21:19:16.333Z,8.30
2022-10-17T21:21:45.922Z,6.10
2022-10-17T21:24:17.761Z,7.97
2022-10-17T21:26:47.102Z,8.30
2022-10-17T21:29:15.249Z,6.77
2022-10-17T21:31:44.974Z,8.13
2022-10-17T21:34:17.430Z,10.07
2022-10-17T21:36:45.452Z,8.47
2022-10-17T21:39:15.901Z,8.37
2022-10-17T21:41:44.747Z,5.47
2022-10-17T21:44:14.698Z,8.03
2022-10-17T21:46:43.103Z,6.43
2022-10-17T21:49:12.791Z,6.47
2022-10-17T21:51:41.048Z,8.63
2022-10-17T21:54:09.220Z,7.70
2022-10-17T21:56:38.625Z,10.10
2022-10-17T21:59:07.071Z,8.37
2022-10-17T22:01:37.716Z,9.50
2022-10-17T22:04:07.153Z,8.87
2022-10-17T22:06:40.835Z,5.20
2022-10-17T22:09:11.422Z,6.87
2022-10-17T22:11:40.849Z,6.50
2022-10-17T22:14:12.828Z,11.13
2022-10-17T22:16:41.138Z,7.00
2022-10-17T22:19:09.717Z,7.00
2022-10-17T22:21:37.961Z,10.23
2022-10-17T22:24:08.691Z,7.17
2022-10-17T22:26:38.056Z,7.40
2022-10-17T22:29:08.589Z,6.70
2022-10-17T22:31:37.368Z,9.00
2022-10-17T22:34:05.823Z,9.97
2022-10-17T22:36:34.003Z,7.37
2022-10-17T22:39:01.743Z,8.13
2022-10-17T22:41:29.848Z,10.53
2022-10-17T22:43:57.720Z,9.13
2022-10-17T22:46:26.975Z,8.57
2022-10-17T22:48:54.745Z,8.23
2022-10-17T22:53:55.229Z,6.13
2022-10-17T22:56:23.694Z,8.60
2022-10-17T22:58:51.994Z,9.40
2022-10-17T23:01:22.209Z,9.70
2022-10-17T23:03:52.501Z,12.03
2022-10-17T23:06:20.760Z,6.23
2022-10-17T23:08:48.829Z,8.33
2022-10-17T23:11:16.676Z,10.70
2022-10-17T23:13:44.606Z,9.53
2022-10-17T23:16:12.368Z,6.00
2022-10-17T23:18:40.398Z,9.80
2022-10-17T23:21:09.801Z,5.37
2022-10-17T23:23:37.808Z,10.10
2022-10-17T23:26:07.493Z,7.93
2022-10-17T23:28:35.616Z,6.63
2022-10-17T23:31:15.855Z,7.40
2022-10-17T23:33:45.091Z,8.97
2022-10-17T23:36:15.763Z,6.23
2022-10-17T23:38:45.000Z,9.53
2022-10-17T23:41:13.459Z,6.60
2022-10-17T23:43:41.317Z,7.53
2022-10-17T23:46:09.602Z,5.73
2022-10-17T23:48:38.612Z,8.37
2022-10-17T23:51:07.002Z,9.00
2022-10-17T23:53:36.294Z,7.97
2022-10-17T23:56:04.199Z,7.87
2022-10-17T23:58:32.292Z,9.37
